sensor_id;sensor_type;location;lat;lon;timestamp;P1;durP1;ratioP1;P2;durP2;ratioP2
28988;SDS011;16089;59.952;10.818;2023-04-29T00:01:37;5.20;;;1.30;;
28988;SDS011;16089;59.952;10.818;2023-04-29T00:04:04;3.72;;;1.40;;
28988;SDS011;16089;59.952;10.818;2023-04-29T00:06:30;4.75;;;1.25;;
28988;SDS011;16089;59.952;10.818;2023-04-29T00:08:57;4.22;;;1.50;;
28988;SDS011;16089;59.952;10.818;2023-04-29T00:11:23;4.13;;;1.30;;
28988;SDS011;16089;59.952;10.818;2023-04-29T00:13:49;4.40;;;1.40;;
28988;SDS011;16089;59.952;10.818;2023-04-29T00:16:17;4.75;;;1.40;;
28988;SDS011;16089;59.952;10.818;2023-04-29T00:18:43;6.68;;;1.35;;
28988;SDS011;16089;59.952;10.818;2023-04-29T00:21:10;4.15;;;1.30;;
28988;SDS011;16089;59.952;10.818;2023-04-29T00:23:36;5.30;;;1.30;;
28988;SDS011;16089;59.952;10.818;2023-04-29T00:26:02;4.45;;;1.30;;
28988;SDS011;16089;59.952;10.818;2023-04-29T00:28:29;3.70;;;1.20;;
28988;SDS011;16089;59.952;10.818;2023-04-29T00:30:55;4.05;;;1.30;;
28988;SDS011;16089;59.952;10.818;2023-04-29T00:33:23;4.70;;;1.58;;
28988;SDS011;16089;59.952;10.818;2023-04-29T00:35:49;7.10;;;1.70;;
28988;SDS011;16089;59.952;10.818;2023-04-29T00:38:16;4.13;;;1.40;;
28988;SDS011;16089;59.952;10.818;2023-04-29T00:40:43;4.03;;;1.48;;
28988;SDS011;16089;59.952;10.818;2023-04-29T00:43:09;2.47;;;1.10;;
28988;SDS011;16089;59.952;10.818;2023-04-29T00:45:35;6.38;;;1.45;;
28988;SDS011;16089;59.952;10.818;2023-04-29T00:48:02;3.15;;;1.17;;
28988;SDS011;16089;59.952;10.818;2023-04-29T00:50:30;4.88;;;1.60;;
28988;SDS011;16089;59.952;10.818;2023-04-29T00:52:56;5.05;;;1.33;;
28988;SDS011;16089;59.952;10.818;2023-04-29T00:55:23;5.53;;;1.63;;
28988;SDS011;16089;59.952;10.818;2023-04-29T00:57:50;5.28;;;1.65;;
28988;SDS011;16089;59.952;10.818;2023-04-29T01:00:17;6.47;;;1.50;;
28988;SDS011;16089;59.952;10.818;2023-04-29T01:02:43;5.13;;;1.50;;
28988;SDS011;16089;59.952;10.818;2023-04-29T01:05:10;3.63;;;1.20;;
28988;SDS011;16089;59.952;10.818;2023-04-29T01:07:41;4.88;;;1.60;;
28988;SDS011;16089;59.952;10.818;2023-04-29T01:10:09;5.13;;;1.75;;
28988;SDS011;16089;59.952;10.818;2023-04-29T01:12:40;3.90;;;1.42;;
28988;SDS011;16089;59.952;10.818;2023-04-29T01:15:09;3.88;;;1.50;;
28988;SDS011;16089;59.952;10.818;2023-04-29T01:17:38;4.60;;;1.52;;
28988;SDS011;16089;59.952;10.818;2023-04-29T01:20:07;5.65;;;1.55;;
28988;SDS011;16089;59.952;10.818;2023-04-29T01:22:34;6.50;;;1.83;;
28988;SDS011;16089;59.952;10.818;2023-04-29T01:25:02;4.68;;;1.52;;
28988;SDS011;16089;59.952;10.818;2023-04-29T01:27:30;4.97;;;1.30;;
28988;SDS011;16089;59.952;10.818;2023-04-29T01:29:59;5.28;;;1.63;;
28988;SDS011;16089;59.952;10.818;2023-04-29T01:32:30;5.03;;;1.60;;
28988;SDS011;16089;59.952;10.818;2023-04-29T01:34:59;4.38;;;1.60;;
28988;SDS011;16089;59.952;10.818;2023-04-29T01:37:32;5.93;;;1.80;;
28988;SDS011;16089;59.952;10.818;2023-04-29T01:40:06;5.18;;;1.60;;
28988;SDS011;16089;59.952;10.818;2023-04-29T01:42:35;4.75;;;1.70;;
28988;SDS011;16089;59.952;10.818;2023-04-29T01:45:04;4.60;;;1.70;;
28988;SDS011;16089;59.952;10.818;2023-04-29T01:47:31;4.25;;;1.48;;
28988;SDS011;16089;59.952;10.818;2023-04-29T01:49:58;5.22;;;1.60;;
28988;SDS011;16089;59.952;10.818;2023-04-29T01:52:24;4.65;;;1.50;;
28988;SDS011;16089;59.952;10.818;2023-04-29T01:54:52;5.32;;;1.70;;
28988;SDS011;16089;59.952;10.818;2023-04-29T01:57:20;5.10;;;1.63;;
28988;SDS011;16089;59.952;10.818;2023-04-29T01:59:46;5.80;;;1.90;;
28988;SDS011;16089;59.952;10.818;2023-04-29T02:02:13;5.80;;;1.70;;
28988;SDS011;16089;59.952;10.818;2023-04-29T02:04:39;4.10;;;1.77;;
28988;SDS011;16089;59.952;10.818;2023-04-29T02:07:06;5.63;;;1.50;;
28988;SDS011;16089;59.952;10.818;2023-04-29T02:09:33;5.78;;;1.83;;
28988;SDS011;16089;59.952;10.818;2023-04-29T02:11:59;5.07;;;1.42;;
28988;SDS011;16089;59.952;10.818;2023-04-29T02:14:27;4.32;;;1.60;;
28988;SDS011;16089;59.952;10.818;2023-04-29T02:16:54;4.93;;;1.73;;
28988;SDS011;16089;59.952;10.818;2023-04-29T02:19:20;3.75;;;1.50;;
28988;SDS011;16089;59.952;10.818;2023-04-29T02:21:46;5.40;;;1.38;;
28988;SDS011;16089;59.952;10.818;2023-04-29T02:24:13;6.10;;;1.90;;
28988;SDS011;16089;59.952;10.818;2023-04-29T02:26:39;4.60;;;1.60;;
28988;SDS011;16089;59.952;10.818;2023-04-29T02:29:05;4.45;;;1.67;;
28988;SDS011;16089;59.952;10.818;2023-04-29T02:31:33;5.10;;;1.60;;
28988;SDS011;16089;59.952;10.818;2023-04-29T02:34:00;3.95;;;1.42;;
28988;SDS011;16089;59.952;10.818;2023-04-29T02:36:26;4.72;;;1.88;;
28988;SDS011;16089;59.952;10.818;2023-04-29T02:38:52;6.10;;;1.90;;
28988;SDS011;16089;59.952;10.818;2023-04-29T02:41:20;4.88;;;1.65;;
28988;SDS011;16089;59.952;10.818;2023-04-29T02:43:46;9.43;;;2.05;;
28988;SDS011;16089;59.952;10.818;2023-04-29T02:46:13;10.27;;;1.98;;
28988;SDS011;16089;59.952;10.818;2023-04-29T02:48:41;8.23;;;1.95;;
28988;SDS011;16089;59.952;10.818;2023-04-29T02:51:07;5.13;;;1.67;;
28988;SDS011;16089;59.952;10.818;2023-04-29T02:53:34;6.25;;;1.38;;
28988;SDS011;16089;59.952;10.818;2023-04-29T02:56:00;4.30;;;1.77;;
28988;SDS011;16089;59.952;10.818;2023-04-29T02:58:26;5.47;;;1.60;;
28988;SDS011;16089;59.952;10.818;2023-04-29T03:00:53;3.78;;;1.58;;
28988;SDS011;16089;59.952;10.818;2023-04-29T03:03:19;4.07;;;1.60;;
28988;SDS011;16089;59.952;10.818;2023-04-29T03:05:48;4.85;;;1.98;;
28988;SDS011;16089;59.952;10.818;2023-04-29T03:08:14;6.70;;;1.48;;
28988;SDS011;16089;59.952;10.818;2023-04-29T03:10:41;5.45;;;1.50;;
28988;SDS011;16089;59.952;10.818;2023-04-29T03:13:07;3.47;;;1.38;;
28988;SDS011;16089;59.952;10.818;2023-04-29T03:15:33;6.80;;;1.60;;
28988;SDS011;16089;59.952;10.818;2023-04-29T03:18:00;4.70;;;1.67;;
28988;SDS011;16089;59.952;10.818;2023-04-29T03:20:28;4.07;;;1.33;;
28988;SDS011;16089;59.952;10.818;2023-04-29T03:22:57;6.13;;;1.67;;
28988;SDS011;16089;59.952;10.818;2023-04-29T03:25:24;4.35;;;1.48;;
28988;SDS011;16089;59.952;10.818;2023-04-29T03:27:52;5.47;;;1.40;;
28988;SDS011;16089;59.952;10.818;2023-04-29T03:30:19;6.18;;;1.55;;
28988;SDS011;16089;59.952;10.818;2023-04-29T03:32:45;4.97;;;1.80;;
28988;SDS011;16089;59.952;10.818;2023-04-29T03:35:11;8.60;;;1.50;;
28988;SDS011;16089;59.952;10.818;2023-04-29T03:37:38;5.30;;;1.50;;
28988;SDS011;16089;59.952;10.818;2023-04-29T03:40:07;6.35;;;1.60;;
28988;SDS011;16089;59.952;10.818;2023-04-29T03:42:34;4.22;;;1.58;;
28988;SDS011;16089;59.952;10.818;2023-04-29T03:45:00;5.95;;;1.70;;
28988;SDS011;16089;59.952;10.818;2023-04-29T03:47:26;5.28;;;1.67;;
28988;SDS011;16089;59.952;10.818;2023-04-29T03:49:53;4.05;;;1.67;;
28988;SDS011;16089;59.952;10.818;2023-04-29T03:52:19;5.90;;;1.58;;
28988;SDS011;16089;59.952;10.818;2023-04-29T03:54:45;6.03;;;1.75;;
28988;SDS011;16089;59.952;10.818;2023-04-29T03:57:13;4.10;;;1.70;;
28988;SDS011;16089;59.952;10.818;2023-04-29T03:59:39;4.80;;;1.70;;
28988;SDS011;16089;59.952;10.818;2023-04-29T04:02:06;5.28;;;1.52;;
28988;SDS011;16089;59.952;10.818;2023-04-29T04:04:32;6.10;;;1.67;;
28988;SDS011;16089;59.952;10.818;2023-04-29T04:06:58;4.68;;;1.60;;
28988;SDS011;16089;59.952;10.818;2023-04-29T04:09:25;5.53;;;1.58;;
28988;SDS011;16089;59.952;10.818;2023-04-29T04:11:51;4.95;;;1.75;;
28988;SDS011;16089;59.952;10.818;2023-04-29T04:14:19;6.40;;;2.20;;
28988;SDS011;16089;59.952;10.818;2023-04-29T04:16:45;4.78;;;1.67;;
28988;SDS011;16089;59.952;10.818;2023-04-29T04:19:14;7.20;;;1.95;;
28988;SDS011;16089;59.952;10.818;2023-04-29T04:21:41;7.88;;;1.98;;
28988;SDS011;16089;59.952;10.818;2023-04-29T04:24:07;5.40;;;1.88;;
28988;SDS011;16089;59.952;10.818;2023-04-29T04:26:33;7.13;;;2.22;;
28988;SDS011;16089;59.952;10.818;2023-04-29T04:29:00;4.00;;;1.80;;
28988;SDS011;16089;59.952;10.818;2023-04-29T04:31:27;5.57;;;2.33;;
28988;SDS011;16089;59.952;10.818;2023-04-29T04:33:55;3.92;;;1.80;;
28988;SDS011;16089;59.952;10.818;2023-04-29T04:36:21;7.72;;;2.05;;
28988;SDS011;16089;59.952;10.818;2023-04-29T04:38:48;5.03;;;1.85;;
28988;SDS011;16089;59.952;10.818;2023-04-29T04:41:14;4.55;;;1.80;;
28988;SDS011;16089;59.952;10.818;2023-04-29T04:43:40;6.28;;;1.90;;
28988;SDS011;16089;59.952;10.818;2023-04-29T04:46:10;5.03;;;1.75;;
28988;SDS011;16089;59.952;10.818;2023-04-29T04:48:38;4.07;;;1.60;;
28988;SDS011;16089;59.952;10.818;2023-04-29T04:51:06;5.80;;;1.63;;
28988;SDS011;16089;59.952;10.818;2023-04-29T04:53:32;4.65;;;1.70;;
28988;SDS011;16089;59.952;10.818;2023-04-29T04:55:59;5.28;;;1.90;;
28988;SDS011;16089;59.952;10.818;2023-04-29T04:58:26;4.80;;;1.73;;
28988;SDS011;16089;59.952;10.818;2023-04-29T05:00:52;6.53;;;1.70;;
28988;SDS011;16089;59.952;10.818;2023-04-29T05:03:18;4.82;;;1.55;;
28988;SDS011;16089;59.952;10.818;2023-04-29T05:05:46;8.48;;;1.80;;
28988;SDS011;16089;59.952;10.818;2023-04-29T05:08:17;6.07;;;1.48;;
28988;SDS011;16089;59.952;10.818;2023-04-29T05:10:44;5.95;;;1.60;;
28988;SDS011;16089;59.952;10.818;2023-04-29T05:13:10;4.28;;;1.58;;
28988;SDS011;16089;59.952;10.818;2023-04-29T05:15:37;5.65;;;1.77;;
28988;SDS011;16089;59.952;10.818;2023-04-29T05:18:03;4.03;;;1.60;;
28988;SDS011;16089;59.952;10.818;2023-04-29T05:20:29;5.82;;;1.42;;
28988;SDS011;16089;59.952;10.818;2023-04-29T05:22:57;4.05;;;1.40;;
28988;SDS011;16089;59.952;10.818;2023-04-29T05:25:23;4.57;;;1.40;;
28988;SDS011;16089;59.952;10.818;2023-04-29T05:27:50;3.90;;;1.35;;
28988;SDS011;16089;59.952;10.818;2023-04-29T05:30:17;2.83;;;1.38;;
28988;SDS011;16089;59.952;10.818;2023-04-29T05:32:43;3.92;;;1.40;;
28988;SDS011;16089;59.952;10.818;2023-04-29T05:35:10;6.28;;;1.60;;
28988;SDS011;16089;59.952;10.818;2023-04-29T05:37:36;5.43;;;1.60;;
28988;SDS011;16089;59.952;10.818;2023-04-29T05:40:05;6.82;;;1.60;;
28988;SDS011;16089;59.952;10.818;2023-04-29T05:42:31;5.82;;;1.63;;
28988;SDS011;16089;59.952;10.818;2023-04-29T05:44:58;6.55;;;1.63;;
28988;SDS011;16089;59.952;10.818;2023-04-29T05:47:24;4.03;;;1.35;;
28988;SDS011;16089;59.952;10.818;2023-04-29T05:49:50;8.13;;;1.35;;
28988;SDS011;16089;59.952;10.818;2023-04-29T05:52:17;3.30;;;1.15;;
28988;SDS011;16089;59.952;10.818;2023-04-29T05:54:43;3.53;;;1.13;;
28988;SDS011;16089;59.952;10.818;2023-04-29T05:57:11;4.43;;;1.55;;
28988;SDS011;16089;59.952;10.818;2023-04-29T05:59:37;4.00;;;1.23;;
28988;SDS011;16089;59.952;10.818;2023-04-29T06:02:03;5.70;;;1.60;;
28988;SDS011;16089;59.952;10.818;2023-04-29T06:04:30;3.05;;;1.15;;
28988;SDS011;16089;59.952;10.818;2023-04-29T06:06:56;3.28;;;1.20;;
28988;SDS011;16089;59.952;10.818;2023-04-29T06:09:22;4.53;;;1.67;;
28988;SDS011;16089;59.952;10.818;2023-04-29T06:11:49;5.93;;;1.13;;
28988;SDS011;16089;59.952;10.818;2023-04-29T06:14:17;4.53;;;1.52;;
28988;SDS011;16089;59.952;10.818;2023-04-29T06:16:45;8.13;;;1.35;;
28988;SDS011;16089;59.952;10.818;2023-04-29T06:19:13;4.50;;;1.27;;
28988;SDS011;16089;59.952;10.818;2023-04-29T06:21:39;4.20;;;1.55;;
28988;SDS011;16089;59.952;10.818;2023-04-29T06:24:05;3.17;;;1.30;;
28988;SDS011;16089;59.952;10.818;2023-04-29T06:26:32;4.28;;;1.13;;
28988;SDS011;16089;59.952;10.818;2023-04-29T06:28:59;11.77;;;1.80;;
28988;SDS011;16089;59.952;10.818;2023-04-29T06:31:26;12.70;;;1.63;;
28988;SDS011;16089;59.952;10.818;2023-04-29T06:33:53;6.13;;;1.50;;
28988;SDS011;16089;59.952;10.818;2023-04-29T06:36:19;3.97;;;1.67;;
28988;SDS011;16089;59.952;10.818;2023-04-29T06:38:46;6.47;;;1.30;;
28988;SDS011;16089;59.952;10.818;2023-04-29T06:41:12;5.70;;;1.40;;
28988;SDS011;16089;59.952;10.818;2023-04-29T06:43:38;5.60;;;1.42;;
28988;SDS011;16089;59.952;10.818;2023-04-29T06:46:07;9.57;;;1.67;;
28988;SDS011;16089;59.952;10.818;2023-04-29T06:48:35;4.10;;;1.38;;
28988;SDS011;16089;59.952;10.818;2023-04-29T06:51:01;7.40;;;1.60;;
28988;SDS011;16089;59.952;10.818;2023-04-29T06:53:28;6.20;;;1.60;;
28988;SDS011;16089;59.952;10.818;2023-04-29T06:55:54;5.15;;;1.52;;
28988;SDS011;16089;59.952;10.818;2023-04-29T06:58:21;7.30;;;1.63;;
28988;SDS011;16089;59.952;10.818;2023-04-29T07:00:48;7.13;;;1.83;;
28988;SDS011;16089;59.952;10.818;2023-04-29T07:03:15;6.63;;;2.13;;
28988;SDS011;16089;59.952;10.818;2023-04-29T07:05:43;6.22;;;1.67;;
28988;SDS011;16089;59.952;10.818;2023-04-29T07:08:10;5.72;;;1.20;;
28988;SDS011;16089;59.952;10.818;2023-04-29T07:10:37;4.30;;;1.30;;
28988;SDS011;16089;59.952;10.818;2023-04-29T07:13:03;3.35;;;1.30;;
28988;SDS011;16089;59.952;10.818;2023-04-29T07:15:32;4.03;;;1.52;;
28988;SDS011;16089;59.952;10.818;2023-04-29T07:17:58;4.35;;;1.23;;
28988;SDS011;16089;59.952;10.818;2023-04-29T07:20:25;4.72;;;1.20;;
28988;SDS011;16089;59.952;10.818;2023-04-29T07:22:53;2.92;;;1.10;;
28988;SDS011;16089;59.952;10.818;2023-04-29T07:25:19;5.88;;;1.25;;
28988;SDS011;16089;59.952;10.818;2023-04-29T07:27:46;6.32;;;1.45;;
28988;SDS011;16089;59.952;10.818;2023-04-29T07:30:13;7.88;;;3.00;;
28988;SDS011;16089;59.952;10.818;2023-04-29T07:32:39;6.18;;;1.85;;
28988;SDS011;16089;59.952;10.818;2023-04-29T07:35:06;6.28;;;2.10;;
28988;SDS011;16089;59.952;10.818;2023-04-29T07:37:32;4.47;;;1.15;;
28988;SDS011;16089;59.952;10.818;2023-04-29T07:40:00;6.78;;;1.38;;
28988;SDS011;16089;59.952;10.818;2023-04-29T07:42:26;8.20;;;1.50;;
28988;SDS011;16089;59.952;10.818;2023-04-29T07:44:53;2.58;;;0.90;;
28988;SDS011;16089;59.952;10.818;2023-04-29T07:47:19;4.28;;;1.00;;
28988;SDS011;16089;59.952;10.818;2023-04-29T07:49:46;4.57;;;1.30;;
28988;SDS011;16089;59.952;10.818;2023-04-29T07:52:12;3.72;;;1.08;;
28988;SDS011;16089;59.952;10.818;2023-04-29T07:54:38;4.70;;;1.02;;
28988;SDS011;16089;59.952;10.818;2023-04-29T07:57:06;1.98;;;0.70;;
28988;SDS011;16089;59.952;10.818;2023-04-29T07:59:32;3.72;;;0.98;;
28988;SDS011;16089;59.952;10.818;2023-04-29T08:01:59;2.88;;;0.98;;
28988;SDS011;16089;59.952;10.818;2023-04-29T08:04:25;4.13;;;1.05;;
28988;SDS011;16089;59.952;10.818;2023-04-29T08:06:51;3.60;;;1.83;;
28988;SDS011;16089;59.952;10.818;2023-04-29T08:09:18;3.97;;;1.20;;
28988;SDS011;16089;59.952;10.818;2023-04-29T08:11:44;2.95;;;1.00;;
28988;SDS011;16089;59.952;10.818;2023-04-29T08:14:12;2.40;;;0.93;;
28988;SDS011;16089;59.952;10.818;2023-04-29T08:16:38;1.83;;;0.90;;
28988;SDS011;16089;59.952;10.818;2023-04-29T08:19:04;3.70;;;0.75;;
28988;SDS011;16089;59.952;10.818;2023-04-29T08:21:31;8.52;;;1.00;;
28988;SDS011;16089;59.952;10.818;2023-04-29T08:23:58;4.15;;;0.93;;
28988;SDS011;16089;59.952;10.818;2023-04-29T08:26:24;3.33;;;1.17;;
28988;SDS011;16089;59.952;10.818;2023-04-29T08:28:51;8.07;;;1.73;;
28988;SDS011;16089;59.952;10.818;2023-04-29T08:31:19;3.20;;;0.82;;
28988;SDS011;16089;59.952;10.818;2023-04-29T08:33:46;5.40;;;1.00;;
28988;SDS011;16089;59.952;10.818;2023-04-29T08:36:13;3.40;;;0.68;;
28988;SDS011;16089;59.952;10.818;2023-04-29T08:38:39;5.15;;;1.40;;
28988;SDS011;16089;59.952;10.818;2023-04-29T08:41:06;2.35;;;0.82;;
28988;SDS011;16089;59.952;10.818;2023-04-29T08:43:33;4.63;;;1.00;;
28988;SDS011;16089;59.952;10.818;2023-04-29T08:46:01;4.70;;;0.90;;
28988;SDS011;16089;59.952;10.818;2023-04-29T08:48:29;5.47;;;0.88;;
28988;SDS011;16089;59.952;10.818;2023-04-29T08:50:55;6.32;;;1.02;;
28988;SDS011;16089;59.952;10.818;2023-04-29T08:53:22;7.47;;;1.02;;
28988;SDS011;16089;59.952;10.818;2023-04-29T08:55:48;11.70;;;1.33;;
28988;SDS011;16089;59.952;10.818;2023-04-29T08:58:15;6.10;;;1.70;;
28988;SDS011;16089;59.952;10.818;2023-04-29T09:00:42;5.55;;;1.15;;
28988;SDS011;16089;59.952;10.818;2023-04-29T09:03:11;4.05;;;0.80;;
28988;SDS011;16089;59.952;10.818;2023-04-29T09:05:41;2.78;;;0.80;;
28988;SDS011;16089;59.952;10.818;2023-04-29T09:08:08;6.65;;;1.13;;
28988;SDS011;16089;59.952;10.818;2023-04-29T09:10:36;3.03;;;1.02;;
28988;SDS011;16089;59.952;10.818;2023-04-29T09:13:02;4.90;;;0.80;;
28988;SDS011;16089;59.952;10.818;2023-04-29T09:15:29;3.97;;;0.80;;
28988;SDS011;16089;59.952;10.818;2023-04-29T09:18:00;27.00;;;1.52;;
28988;SDS011;16089;59.952;10.818;2023-04-29T09:20:27;6.13;;;0.82;;
28988;SDS011;16089;59.952;10.818;2023-04-29T09:22:55;5.60;;;0.93;;
28988;SDS011;16089;59.952;10.818;2023-04-29T09:25:22;5.95;;;1.20;;
28988;SDS011;16089;59.952;10.818;2023-04-29T09:27:48;3.38;;;0.70;;
28988;SDS011;16089;59.952;10.818;2023-04-29T09:30:15;2.72;;;0.70;;
28988;SDS011;16089;59.952;10.818;2023-04-29T09:32:41;2.47;;;0.70;;
28988;SDS011;16089;59.952;10.818;2023-04-29T09:35:21;2.78;;;0.70;;
28988;SDS011;16089;59.952;10.818;2023-04-29T09:37:47;4.22;;;0.98;;
28988;SDS011;16089;59.952;10.818;2023-04-29T09:42:56;1.30;;;0.50;;
28988;SDS011;16089;59.952;10.818;2023-04-29T09:45:33;1.45;;;0.40;;
28988;SDS011;16089;59.952;10.818;2023-04-29T09:48:00;0.68;;;0.38;;
28988;SDS011;16089;59.952;10.818;2023-04-29T09:50:27;0.57;;;0.38;;
28988;SDS011;16089;59.952;10.818;2023-04-29T09:52:53;1.08;;;0.40;;
28988;SDS011;16089;59.952;10.818;2023-04-29T09:55:20;1.17;;;0.32;;
28988;SDS011;16089;59.952;10.818;2023-04-29T09:57:46;2.22;;;0.60;;
28988;SDS011;16089;59.952;10.818;2023-04-29T10:00:14;1.90;;;0.40;;
28988;SDS011;16089;59.952;10.818;2023-04-29T10:02:40;0.75;;;0.30;;
28988;SDS011;16089;59.952;10.818;2023-04-29T10:05:07;2.50;;;0.50;;
28988;SDS011;16089;59.952;10.818;2023-04-29T10:07:37;4.15;;;0.50;;
28988;SDS011;16089;59.952;10.818;2023-04-29T10:10:05;2.78;;;0.57;;
28988;SDS011;16089;59.952;10.818;2023-04-29T10:12:33;6.30;;;0.50;;
28988;SDS011;16089;59.952;10.818;2023-04-29T10:15:01;11.55;;;1.33;;
28988;SDS011;16089;59.952;10.818;2023-04-29T10:17:32;8.10;;;0.45;;
28988;SDS011;16089;59.952;10.818;2023-04-29T10:20:01;0.40;;;0.28;;
28988;SDS011;16089;59.952;10.818;2023-04-29T10:22:32;0.90;;;0.30;;
28988;SDS011;16089;59.952;10.818;2023-04-29T10:24:58;0.55;;;0.20;;
28988;SDS011;16089;59.952;10.818;2023-04-29T10:27:26;0.60;;;0.10;;
28988;SDS011;16089;59.952;10.818;2023-04-29T10:29:53;2.08;;;0.25;;
28988;SDS011;16089;59.952;10.818;2023-04-29T10:32:20;0.93;;;0.10;;
28988;SDS011;16089;59.952;10.818;2023-04-29T10:34:48;1.85;;;0.20;;
28988;SDS011;16089;59.952;10.818;2023-04-29T10:37:15;4.00;;;1.00;;
28988;SDS011;16089;59.952;10.818;2023-04-29T10:39:43;2.60;;;0.90;;
28988;SDS011;16089;59.952;10.818;2023-04-29T10:42:20;0.88;;;0.10;;
28988;SDS011;16089;59.952;10.818;2023-04-29T10:47:41;12.65;;;3.88;;
28988;SDS011;16089;59.952;10.818;2023-04-29T10:50:09;6.72;;;2.97;;
28988;SDS011;16089;59.952;10.818;2023-04-29T10:52:50;7.45;;;0.52;;
28988;SDS011;16089;59.952;10.818;2023-04-29T10:55:16;0.28;;;0.10;;
28988;SDS011;16089;59.952;10.818;2023-04-29T10:57:42;1.75;;;0.10;;
28988;SDS011;16089;59.952;10.818;2023-04-29T11:00:14;0.35;;;0.10;;
28988;SDS011;16089;59.952;10.818;2023-04-29T11:02:46;0.10;;;0.10;;
28988;SDS011;16089;59.952;10.818;2023-04-29T11:05:14;0.35;;;0.05;;
28988;SDS011;16089;59.952;10.818;2023-04-29T11:07:42;0.20;;;0.03;;
28988;SDS011;16089;59.952;10.818;2023-04-29T11:10:11;0.65;;;0.10;;
28988;SDS011;16089;59.952;10.818;2023-04-29T11:12:37;0.30;;;0.10;;
28988;SDS011;16089;59.952;10.818;2023-04-29T11:15:05;0.25;;;0.10;;
28988;SDS011;16089;59.952;10.818;2023-04-29T11:17:35;1.40;;;0.10;;
28988;SDS011;16089;59.952;10.818;2023-04-29T11:20:02;0.10;;;0.10;;
28988;SDS011;16089;59.952;10.818;2023-04-29T11:22:30;1.58;;;0.10;;
28988;SDS011;16089;59.952;10.818;2023-04-29T11:24:58;0.40;;;0.10;;
28988;SDS011;16089;59.952;10.818;2023-04-29T11:27:26;3.25;;;0.20;;
28988;SDS011;16089;59.952;10.818;2023-04-29T11:29:52;0.55;;;0.20;;
28988;SDS011;16089;59.952;10.818;2023-04-29T11:32:22;0.38;;;0.20;;
28988;SDS011;16089;59.952;10.818;2023-04-29T11:34:50;0.10;;;0.10;;
28988;SDS011;16089;59.952;10.818;2023-04-29T11:37:19;1.75;;;0.20;;
28988;SDS011;16089;59.952;10.818;2023-04-29T11:39:48;6.57;;;0.40;;
28988;SDS011;16089;59.952;10.818;2023-04-29T11:42:18;0.10;;;0.08;;
28988;SDS011;16089;59.952;10.818;2023-04-29T11:44:44;9.00;;;2.88;;
28988;SDS011;16089;59.952;10.818;2023-04-29T11:47:11;0.47;;;0.22;;
28988;SDS011;16089;59.952;10.818;2023-04-29T11:49:38;0.98;;;0.10;;
28988;SDS011;16089;59.952;10.818;2023-04-29T11:52:04;2.47;;;0.20;;
28988;SDS011;16089;59.952;10.818;2023-04-29T11:54:30;0.98;;;0.17;;
28988;SDS011;16089;59.952;10.818;2023-04-29T11:56:58;0.25;;;0.10;;
28988;SDS011;16089;59.952;10.818;2023-04-29T11:59:26;0.20;;;0.10;;
28988;SDS011;16089;59.952;10.818;2023-04-29T12:01:53;0.57;;;0.20;;
28988;SDS011;16089;59.952;10.818;2023-04-29T12:04:19;46.42;;;2.53;;
28988;SDS011;16089;59.952;10.818;2023-04-29T12:06:46;9.40;;;0.52;;
28988;SDS011;16089;59.952;10.818;2023-04-29T12:09:16;0.43;;;0.25;;
28988;SDS011;16089;59.952;10.818;2023-04-29T12:11:43;8.40;;;0.35;;
28988;SDS011;16089;59.952;10.818;2023-04-29T12:14:12;0.98;;;0.20;;
28988;SDS011;16089;59.952;10.818;2023-04-29T12:16:39;0.40;;;0.20;;
28988;SDS011;16089;59.952;10.818;2023-04-29T12:19:05;1.63;;;0.30;;
28988;SDS011;16089;59.952;10.818;2023-04-29T12:21:34;0.10;;;0.10;;
28988;SDS011;16089;59.952;10.818;2023-04-29T12:24:01;1.67;;;0.20;;
28988;SDS011;16089;59.952;10.818;2023-04-29T12:26:27;0.20;;;0.10;;
28988;SDS011;16089;59.952;10.818;2023-04-29T12:28:55;1.08;;;0.20;;
28988;SDS011;16089;59.952;10.818;2023-04-29T12:31:25;2.10;;;0.30;;
28988;SDS011;16089;59.952;10.818;2023-04-29T12:33:56;2.30;;;0.40;;
28988;SDS011;16089;59.952;10.818;2023-04-29T12:36:23;1.13;;;0.40;;
28988;SDS011;16089;59.952;10.818;2023-04-29T12:38:49;8.50;;;0.63;;
28988;SDS011;16089;59.952;10.818;2023-04-29T12:41:18;2.67;;;0.50;;
28988;SDS011;16089;59.952;10.818;2023-04-29T12:43:45;2.83;;;0.43;;
28988;SDS011;16089;59.952;10.818;2023-04-29T12:46:11;4.93;;;0.47;;
28988;SDS011;16089;59.952;10.818;2023-04-29T12:48:40;2.47;;;0.45;;
28988;SDS011;16089;59.952;10.818;2023-04-29T12:51:07;1.20;;;0.50;;
28988;SDS011;16089;59.952;10.818;2023-04-29T12:53:34;1.92;;;0.38;;
28988;SDS011;16089;59.952;10.818;2023-04-29T12:56:00;1.52;;;0.40;;
28988;SDS011;16089;59.952;10.818;2023-04-29T12:58:27;1.65;;;0.43;;
28988;SDS011;16089;59.952;10.818;2023-04-29T13:00:53;0.32;;;0.22;;
28988;SDS011;16089;59.952;10.818;2023-04-29T13:03:20;6.15;;;0.47;;
28988;SDS011;16089;59.952;10.818;2023-04-29T13:05:47;1.75;;;0.30;;
28988;SDS011;16089;59.952;10.818;2023-04-29T13:08:16;1.13;;;0.45;;
28988;SDS011;16089;59.952;10.818;2023-04-29T13:10:43;0.93;;;0.40;;
28988;SDS011;16089;59.952;10.818;2023-04-29T13:13:09;5.40;;;0.50;;
28988;SDS011;16089;59.952;10.818;2023-04-29T13:15:35;1.50;;;0.32;;
28988;SDS011;16089;59.952;10.818;2023-04-29T13:18:03;0.80;;;0.30;;
28988;SDS011;16089;59.952;10.818;2023-04-29T13:20:29;0.93;;;0.43;;
28988;SDS011;16089;59.952;10.818;2023-04-29T13:22:57;1.50;;;0.30;;
28988;SDS011;16089;59.952;10.818;2023-04-29T13:25:24;0.90;;;0.32;;
28988;SDS011;16089;59.952;10.818;2023-04-29T13:27:50;3.65;;;0.50;;
28988;SDS011;16089;59.952;10.818;2023-04-29T13:30:16;0.70;;;0.40;;
28988;SDS011;16089;59.952;10.818;2023-04-29T13:32:43;6.90;;;0.47;;
28988;SDS011;16089;59.952;10.818;2023-04-29T13:35:09;3.65;;;0.50;;
28988;SDS011;16089;59.952;10.818;2023-04-29T13:37:36;0.60;;;0.30;;
28988;SDS011;16089;59.952;10.818;2023-04-29T13:40:04;2.50;;;0.55;;
28988;SDS011;16089;59.952;10.818;2023-04-29T13:42:31;1.30;;;0.50;;
28988;SDS011;16089;59.952;10.818;2023-04-29T13:44:57;1.63;;;0.60;;
28988;SDS011;16089;59.952;10.818;2023-04-29T13:47:23;3.47;;;0.60;;
28988;SDS011;16089;59.952;10.818;2023-04-29T13:49:51;1.90;;;0.63;;
28988;SDS011;16089;59.952;10.818;2023-04-29T13:52:17;2.30;;;0.52;;
28988;SDS011;16089;59.952;10.818;2023-04-29T13:54:43;1.02;;;0.50;;
28988;SDS011;16089;59.952;10.818;2023-04-29T13:57:11;2.97;;;0.60;;
28988;SDS011;16089;59.952;10.818;2023-04-29T13:59:37;2.13;;;0.80;;
28988;SDS011;16089;59.952;10.818;2023-04-29T14:02:04;2.03;;;0.57;;
28988;SDS011;16089;59.952;10.818;2023-04-29T14:04:30;5.88;;;0.70;;
28988;SDS011;16089;59.952;10.818;2023-04-29T14:06:57;3.40;;;0.60;;
28988;SDS011;16089;59.952;10.818;2023-04-29T14:09:23;2.92;;;0.60;;
28988;SDS011;16089;59.952;10.818;2023-04-29T14:11:50;4.07;;;0.88;;
28988;SDS011;16089;59.952;10.818;2023-04-29T14:14:18;4.15;;;0.50;;
28988;SDS011;16089;59.952;10.818;2023-04-29T14:16:44;4.95;;;0.63;;
28988;SDS011;16089;59.952;10.818;2023-04-29T14:19:10;3.03;;;0.50;;
28988;SDS011;16089;59.952;10.818;2023-04-29T14:21:37;2.40;;;0.50;;
28988;SDS011;16089;59.952;10.818;2023-04-29T14:24:03;1.20;;;0.50;;
28988;SDS011;16089;59.952;10.818;2023-04-29T14:26:30;2.45;;;0.50;;
28988;SDS011;16089;59.952;10.818;2023-04-29T14:28:56;6.95;;;0.90;;
28988;SDS011;16089;59.952;10.818;2023-04-29T14:31:25;3.25;;;0.50;;
28988;SDS011;16089;59.952;10.818;2023-04-29T14:33:52;5.55;;;0.50;;
28988;SDS011;16089;59.952;10.818;2023-04-29T14:36:19;2.63;;;0.50;;
28988;SDS011;16089;59.952;10.818;2023-04-29T14:38:45;1.90;;;0.50;;